Time;durP1;ratioP1;P1;durP2;ratioP2;P2;SDS_P1;SDS_P2;PMS_P1;PMS_P2;Temp;Humidity;BMP_temperature;BMP_pressure;BME280_temperature;BME280_humidity;BME280_pressure;Samples;Min_cycle;Max_cycle;Signal;HPM_P1;HPM_P2
2021/03/18 00:00:28;;;;;;;0.95;0.70;;;7.30;39.50;;;;;;4960053;28;20043;-73
2021/03/18 00:02:54;;;;;;;1.13;0.82;;;7.20;39.90;;;;;;4973248;28;20485;-73
2021/03/18 00:05:20;;;;;;;0.75;0.75;;;7.20;40.20;;;;;;4973980;28;20038;-73
2021/03/18 00:07:46;;;;;;;1.23;0.65;;;7.20;39.80;;;;;;4972697;28;20042;-73
2021/03/18 00:10:13;;;;;;;0.80;0.80;;;7.20;39.40;;;;;;4964103;28;20042;-73
2021/03/18 00:12:39;;;;;;;0.80;0.70;;;7.20;39.50;;;;;;4955869;28;20030;-73
2021/03/18 00:15:10;;;;;;;0.77;0.70;;;7.30;39.50;;;;;;4974313;28;20030;-72
2021/03/18 00:17:36;;;;;;;0.68;0.68;;;7.40;39.70;;;;;;4985609;28;20042;-75
2021/03/18 00:20:11;;;;;;;0.85;0.75;;;7.40;39.80;;;;;;4976906;28;20033;-75
2021/03/18 00:22:40;;;;;;;0.82;0.82;;;7.40;39.90;;;;;;4976743;28;20052;-75
2021/03/18 00:25:09;;;;;;;4.80;0.90;;;7.30;39.80;;;;;;4975607;28;20339;-74
2021/03/18 00:27:34;;;;;;;0.63;0.63;;;7.30;40.30;;;;;;4976674;28;20027;-74
2021/03/18 00:30:00;;;;;;;1.17;0.70;;;7.20;40.60;;;;;;4976857;28;20121;-74
2021/03/18 00:32:26;;;;;;;1.50;0.80;;;7.20;40.60;;;;;;4976607;28;20031;-74
2021/03/18 00:34:52;;;;;;;0.82;0.75;;;7.20;40.50;;;;;;4976653;28;20089;-74
2021/03/18 00:37:17;;;;;;;0.75;0.75;;;7.20;40.30;;;;;;4976374;28;20101;-74
2021/03/18 00:39:43;;;;;;;0.70;0.70;;;7.20;40.20;;;;;;4959149;28;20034;-74
2021/03/18 00:42:10;;;;;;;1.17;0.80;;;7.30;40.20;;;;;;4976702;28;20106;-74
2021/03/18 00:44:35;;;;;;;1.15;0.88;;;7.30;40.60;;;;;;4976390;28;20077;-74
2021/03/18 00:47:01;;;;;;;0.95;0.70;;;7.30;41.40;;;;;;4976272;28;20477;-74
2021/03/18 00:49:27;;;;;;;1.05;0.90;;;7.20;41.70;;;;;;4976293;28;20042;-74
2021/03/18 00:51:52;;;;;;;0.88;0.75;;;7.30;41.50;;;;;;4976249;28;20117;-75
2021/03/18 00:54:18;;;;;;;0.57;0.57;;;7.30;41.10;;;;;;4958914;28;20031;-75
2021/03/18 00:56:44;;;;;;;2.78;0.80;;;7.20;40.80;;;;;;4976215;28;20023;-75
2021/03/18 00:59:10;;;;;;;0.82;0.73;;;7.20;40.40;;;;;;4976144;28;20037;-74
2021/03/18 01:01:35;;;;;;;1.20;0.90;;;7.30;39.90;;;;;;4972639;28;20043;-74
2021/03/18 01:04:01;;;;;;;0.50;0.50;;;7.30;39.60;;;;;;4966006;28;20027;-75
2021/03/18 01:06:29;;;;;;;0.50;0.50;;;7.40;38.90;;;;;;4963491;28;20023;-74
2021/03/18 01:08:56;;;;;;;3.00;1.00;;;7.40;39.00;;;;;;4949254;28;20110;-74
2021/03/18 01:11:28;;;;;;;1.55;0.60;;;7.40;38.80;;;;;;4964498;28;20074;-75
2021/03/18 01:14:01;;;;;;;0.60;0.60;;;7.40;38.70;;;;;;4948447;28;20025;-74
2021/03/18 01:16:39;;;;;;;1.20;0.88;;;7.50;38.50;;;;;;4963946;28;20115;-74
2021/03/18 01:19:08;;;;;;;0.60;0.60;;;7.50;38.70;;;;;;4964010;28;20035;-74
2021/03/18 01:21:39;;;;;;;0.50;0.50;;;7.60;39.10;;;;;;4963680;28;20023;-75
2021/03/18 01:24:07;;;;;;;0.70;0.70;;;7.60;39.40;;;;;;4956566;29;20028;-74
2021/03/18 01:26:33;;;;;;;1.95;0.70;;;7.70;40.00;;;;;;4955669;29;20020;-74
2021/03/18 01:28:59;;;;;;;0.55;0.55;;;7.60;40.50;;;;;;4954160;28;20577;-74
2021/03/18 01:31:25;;;;;;;1.05;0.70;;;7.60;40.90;;;;;;4955458;29;20023;-74
2021/03/18 01:33:50;;;;;;;0.60;0.60;;;7.60;40.90;;;;;;4955313;29;20514;-75
2021/03/18 01:36:16;;;;;;;1.80;0.80;;;7.60;41.40;;;;;;4938756;29;20359;-74
2021/03/18 01:38:44;;;;;;;0.70;0.70;;;7.50;41.90;;;;;;4955934;29;20035;-74
2021/03/18 01:41:10;;;;;;;0.90;0.88;;;7.50;42.50;;;;;;4956624;28;20046;-75
2021/03/18 01:43:38;;;;;;;1.02;0.75;;;7.50;42.70;;;;;;4958017;28;20378;-75
2021/03/18 01:46:04;;;;;;;1.15;0.63;;;7.50;43.00;;;;;;4975312;28;20030;-74
2021/03/18 01:48:30;;;;;;;4.15;0.88;;;7.50;43.00;;;;;;4975355;28;20023;-74
2021/03/18 01:50:57;;;;;;;2.28;0.70;;;7.50;43.30;;;;;;4975302;28;20093;-74
2021/03/18 01:53:24;;;;;;;12.93;1.08;;;7.40;43.90;;;;;;4974337;28;20027;-74
2021/03/18 01:55:52;;;;;;;0.80;0.80;;;7.40;44.00;;;;;;4973296;28;20500;-75
2021/03/18 01:58:19;;;;;;;2.25;1.27;;;7.40;43.80;;;;;;4975063;28;20500;-74
2021/03/18 02:00:48;;;;;;;1.67;0.70;;;7.30;43.50;;;;;;4956324;28;20118;-74
2021/03/18 02:03:14;;;;;;;2.15;0.70;;;7.30;44.00;;;;;;4992877;28;20031;-74
2021/03/18 02:05:45;;;;;;;0.82;0.82;;;7.30;44.40;;;;;;4976313;28;20011;-74
2021/03/18 02:08:11;;;;;;;0.90;0.73;;;7.30;44.60;;;;;;4957567;28;20118;-74
2021/03/18 02:10:38;;;;;;;2.33;0.85;;;7.20;45.50;;;;;;4968386;28;20035;-74
2021/03/18 02:13:06;;;;;;;0.70;0.65;;;7.20;45.70;;;;;;4974857;28;20022;-74
2021/03/18 02:15:35;;;;;;;0.73;0.73;;;7.20;45.40;;;;;;4973296;28;20034;-75
2021/03/18 02:18:17;;;;;;;3.30;0.93;;;7.10;45.20;;;;;;4974742;28;20481;-74
2021/03/18 02:21:01;;;;;;;;;;;7.10;46.20;;;;;;4975086;28;20055;-74
2021/03/18 02:23:36;;;;;;;0.70;0.70;;;7.00;45.90;;;;;;4955353;29;19917;-74
2021/03/18 02:26:39;;;;;;;0.73;0.60;;;7.00;46.50;;;;;;4938028;29;20032;-74
2021/03/18 02:29:50;;;;;;;0.70;0.70;;;7.00;46.60;;;;;;4955175;29;20496;-74
2021/03/18 02:32:18;;;;;;;1.08;0.82;;;6.90;47.30;;;;;;4955285;29;20027;-75
2021/03/18 02:34:53;;;;;;;0.70;0.70;;;6.90;47.60;;;;;;4955303;29;20413;-74
2021/03/18 02:37:22;;;;;;;0.88;0.82;;;6.90;47.30;;;;;;4955098;29;20051;-74
2021/03/18 02:39:55;;;;;;;1.38;0.70;;;6.80;47.80;;;;;;4970258;28;20019;-75
2021/03/18 02:42:22;;;;;;;0.47;0.47;;;6.80;48.00;;;;;;4993778;28;20458;-74
2021/03/18 02:44:51;;;;;;;0.73;0.73;;;6.80;47.60;;;;;;4993769;28;20088;-74
2021/03/18 02:47:21;;;;;;;1.15;0.82;;;6.80;47.20;;;;;;4993406;28;20026;-74
2021/03/18 02:49:49;;;;;;;3.20;1.10;;;6.80;46.80;;;;;;4976364;28;20029;-74
2021/03/18 02:52:19;;;;;;;0.80;0.80;;;6.80;47.10;;;;;;4975819;28;20037;-75
2021/03/18 02:54:46;;;;;;;1.13;0.90;;;6.80;47.60;;;;;;4991161;28;20031;-74
2021/03/18 02:57:14;;;;;;;0.93;0.93;;;6.70;48.20;;;;;;4993400;28;20049;-74
2021/03/18 02:59:42;;;;;;;0.73;0.73;;;6.70;48.30;;;;;;4993538;28;20033;-74
2021/03/18 03:02:13;;;;;;;0.88;0.80;;;6.70;48.30;;;;;;4982832;28;20057;-74
2021/03/18 03:04:41;;;;;;;1.75;1.02;;;6.70;48.60;;;;;;4973762;28;20019;-75
2021/03/18 03:07:08;;;;;;;2.17;1.00;;;6.70;48.60;;;;;;4973794;28;20030;-74
2021/03/18 03:09:35;;;;;;;0.93;0.93;;;6.60;48.60;;;;;;4973785;28;20567;-74
2021/03/18 03:12:02;;;;;;;1.63;1.00;;;6.60;49.00;;;;;;4973782;28;20027;-74
2021/03/18 03:14:30;;;;;;;1.25;1.15;;;6.70;49.10;;;;;;4973495;28;20050;-74
2021/03/18 03:16:56;;;;;;;1.20;1.10;;;6.60;49.40;;;;;;4973653;28;20027;-74
2021/03/18 03:19:23;;;;;;;1.33;0.95;;;6.60;49.90;;;;;;4973251;28;20014;-74
2021/03/18 03:21:50;;;;;;;1.23;1.13;;;6.60;50.30;;;;;;4972457;28;20505;-75
2021/03/18 03:24:17;;;;;;;1.35;1.10;;;6.50;50.00;;;;;;4973651;28;20022;-75
2021/03/18 03:26:44;;;;;;;1.08;1.08;;;6.50;50.40;;;;;;4973435;28;20019;-74
2021/03/18 03:29:10;;;;;;;1.50;1.40;;;6.40;50.80;;;;;;4972473;28;20121;-74
2021/03/18 03:31:36;;;;;;;3.17;1.52;;;6.40;50.90;;;;;;4973442;28;20030;-75
2021/03/18 03:34:07;;;;;;;1.90;1.30;;;6.40;51.00;;;;;;4973544;28;20023;-75
2021/03/18 03:36:33;;;;;;;1.50;1.40;;;6.30;51.20;;;;;;4972146;28;20552;-75
2021/03/18 03:39:00;;;;;;;2.17;1.30;;;6.30;51.20;;;;;;4973464;28;20158;-75
2021/03/18 03:41:25;;;;;;;1.52;1.35;;;6.30;51.20;;;;;;4973465;28;20031;-75
2021/03/18 03:43:52;;;;;;;3.58;1.92;;;6.30;51.80;;;;;;4973478;28;20027;-74
2021/03/18 03:46:18;;;;;;;4.60;1.70;;;6.30;51.40;;;;;;4973303;28;20034;-75
2021/03/18 03:48:44;;;;;;;2.63;1.67;;;6.20;51.60;;;;;;4973331;28;20114;-74
2021/03/18 03:51:10;;;;;;;2.83;1.63;;;6.20;51.80;;;;;;4973611;28;20042;-74
2021/03/18 03:53:52;;;;;;;3.17;1.60;;;6.20;52.00;;;;;;4959538;28;20018;-74
2021/03/18 03:56:29;;;;;;;2.38;1.63;;;6.10;52.10;;;;;;4977425;28;20109;-74
2021/03/18 03:59:15;;;;;;;5.45;2.00;;;6.20;52.50;;;;;;4978214;28;20058;-74
2021/03/18 04:01:44;;;;;;;2.30;2.10;;;6.20;52.60;;;;;;4975393;28;20394;-74
2021/03/18 04:04:14;;;;;;;1.92;1.83;;;6.20;52.50;;;;;;4996530;28;20465;-75
2021/03/18 04:06:42;;;;;;;2.00;1.85;;;6.20;52.50;;;;;;4979678;28;20091;-74
2021/03/18 04:09:11;;;;;;;3.70;1.85;;;6.20;52.70;;;;;;4976957;28;20057;-74
2021/03/18 04:11:39;;;;;;;3.55;1.85;;;6.30;52.70;;;;;;4959343;28;20081;-74
2021/03/18 04:14:06;;;;;;;2.42;2.22;;;6.30;52.60;;;;;;4977178;28;20062;-75
2021/03/18 04:16:34;;;;;;;2.65;2.45;;;6.10;52.80;;;;;;4976905;28;20034;-74
2021/03/18 04:19:01;;;;;;;2.88;2.35;;;6.10;52.80;;;;;;4977269;28;20384;-74
2021/03/18 04:21:29;;;;;;;2.58;2.30;;;6.00;53.00;;;;;;4996319;28;20077;-75
2021/03/18 04:23:55;;;;;;;3.63;2.55;;;5.90;53.10;;;;;;4978796;28;20081;-74
2021/03/18 04:26:21;;;;;;;4.00;2.75;;;5.80;53.70;;;;;;4978696;28;20026;-74
2021/03/18 04:28:48;;;;;;;3.20;2.33;;;5.80;53.90;;;;;;4996237;28;20038;-75
2021/03/18 04:31:15;;;;;;;2.75;2.47;;;5.80;53.90;;;;;;4995982;28;20141;-75
2021/03/18 04:33:42;;;;;;;3.17;2.88;;;5.80;54.20;;;;;;4996167;28;20072;-75
2021/03/18 04:36:09;;;;;;;7.78;3.15;;;5.70;54.20;;;;;;4995980;28;20100;-75
2021/03/18 04:38:35;;;;;;;3.78;3.10;;;5.70;54.50;;;;;;4995798;28;20118;-74
2021/03/18 04:41:01;;;;;;;2.90;2.70;;;5.70;54.70;;;;;;4978197;28;20118;-74
2021/03/18 04:43:27;;;;;;;5.78;2.63;;;5.70;55.10;;;;;;4959186;28;20035;-75
2021/03/18 04:45:57;;;;;;;3.30;3.03;;;5.70;55.40;;;;;;4958987;28;20023;-75
2021/03/18 04:48:24;;;;;;;5.03;3.00;;;5.70;55.50;;;;;;4959230;28;20026;-74
2021/03/18 04:50:50;;;;;;;4.15;2.97;;;5.70;55.40;;;;;;4976403;28;20027;-75
2021/03/18 04:53:18;;;;;;;5.47;3.45;;;5.70;55.80;;;;;;4975688;28;20027;-74
2021/03/18 04:55:45;;;;;;;4.68;2.75;;;5.70;55.00;;;;;;4976275;28;20477;-74
2021/03/18 04:58:11;;;;;;;5.22;3.13;;;5.70;54.90;;;;;;4976009;28;20346;-75
2021/03/18 05:00:38;;;;;;;6.10;2.97;;;5.60;55.10;;;;;;4958907;28;20027;-74
2021/03/18 05:03:07;;;;;;;5.07;3.47;;;5.60;55.20;;;;;;4959542;28;20094;-75
2021/03/18 05:05:35;;;;;;;3.45;2.90;;;5.50;55.40;;;;;;4958796;28;20122;-74
2021/03/18 05:08:02;;;;;;;4.35;3.30;;;5.60;55.60;;;;;;4975974;28;20121;-75
2021/03/18 05:10:32;;;;;;;6.18;3.35;;;5.50;55.70;;;;;;4976005;28;20031;-75
2021/03/18 05:13:02;;;;;;;6.53;3.25;;;5.50;55.60;;;;;;4979663;28;20045;-74
2021/03/18 05:15:29;;;;;;;3.92;3.30;;;5.50;55.30;;;;;;4983285;28;20035;-74
2021/03/18 05:17:56;;;;;;;3.42;2.83;;;5.60;54.80;;;;;;4975352;28;20383;-75
2021/03/18 05:20:24;;;;;;;4.65;2.67;;;5.60;54.40;;;;;;4975686;28;20031;-75
2021/03/18 05:22:54;;;;;;;3.60;3.15;;;5.70;54.20;;;;;;4975977;28;20027;-75
2021/03/18 05:25:22;;;;;;;3.97;2.55;;;5.60;54.00;;;;;;4975008;28;20051;-75
2021/03/18 05:27:48;;;;;;;4.22;2.67;;;5.70;54.00;;;;;;4981398;28;20019;-75
2021/03/18 05:30:16;;;;;;;2.75;2.53;;;5.70;53.70;;;;;;4964218;28;20139;-75
2021/03/18 05:32:42;;;;;;;3.00;2.47;;;5.70;53.70;;;;;;4967135;28;20027;-74
2021/03/18 05:35:10;;;;;;;2.92;2.70;;;5.70;52.90;;;;;;4988638;28;20029;-78
2021/03/18 05:37:37;;;;;;;4.45;2.80;;;5.60;53.40;;;;;;4994962;28;20064;-78
2021/03/18 05:40:05;;;;;;;2.60;1.77;;;5.60;53.20;;;;;;4986889;28;20487;-78
2021/03/18 05:42:32;;;;;;;3.90;2.67;;;5.60;53.40;;;;;;4993618;28;20023;-78
2021/03/18 05:44:59;;;;;;;4.97;2.33;;;5.60;52.30;;;;;;4958745;28;20078;-78
2021/03/18 05:47:26;;;;;;;3.33;2.67;;;5.60;52.80;;;;;;4975603;28;20116;-78
2021/03/18 05:49:52;;;;;;;2.90;2.70;;;5.50;53.20;;;;;;4996065;28;20461;-78
2021/03/18 05:52:19;;;;;;;2.95;2.65;;;5.50;53.60;;;;;;4995941;28;20050;-78
2021/03/18 05:54:50;;;;;;;4.38;2.83;;;5.40;53.70;;;;;;4995819;28;20057;-78
2021/03/18 05:57:18;;;;;;;2.33;2.08;;;5.40;53.80;;;;;;4995881;28;20026;-78
2021/03/18 05:59:44;;;;;;;2.22;2.03;;;5.40;53.70;;;;;;4996004;28;20551;-78
2021/03/18 06:02:10;;;;;;;5.40;2.20;;;5.40;53.40;;;;;;4995406;28;20432;-78
2021/03/18 06:04:36;;;;;;;3.25;2.03;;;5.40;53.20;;;;;;4977816;28;20023;-78
2021/03/18 06:07:02;;;;;;;3.13;2.10;;;5.40;53.00;;;;;;4963070;28;20504;-78
2021/03/18 06:09:28;;;;;;;3.45;2.00;;;5.40;52.40;;;;;;4975570;28;20416;-78
2021/03/18 06:11:54;;;;;;;1.80;1.70;;;5.40;51.70;;;;;;4975682;28;20035;-79
2021/03/18 06:14:20;;;;;;;2.25;2.05;;;5.50;51.00;;;;;;4974763;28;20129;-78
2021/03/18 06:16:48;;;;;;;4.20;2.10;;;5.50;50.90;;;;;;4975399;28;20541;-79
2021/03/18 06:19:15;;;;;;;2.10;1.88;;;5.50;50.90;;;;;;4975437;28;20495;-79
2021/03/18 06:21:47;;;;;;;2.38;2.17;;;5.50;50.60;;;;;;4975395;28;20030;-78
2021/03/18 06:24:14;;;;;;;2.05;1.50;;;5.60;50.50;;;;;;4975465;28;20031;-79
2021/03/18 06:26:40;;;;;;;1.83;1.13;;;5.70;50.20;;;;;;4957780;28;20025;-79
2021/03/18 06:29:36;;;;;;;0.75;0.75;;;5.70;49.90;;;;;;4974854;28;20089;-79
2021/03/18 06:32:15;;;;;;;3.92;1.50;;;5.90;48.00;;;;;;4974135;28;20102;-79
2021/03/18 06:34:47;;;;;;;0.80;0.80;;;6.10;47.90;;;;;;4974435;28;20034;-79
2021/03/18 06:37:38;;;;;;;0.68;0.68;;;6.10;48.30;;;;;;4973806;28;20065;-79
2021/03/18 06:40:23;;;;;;;0.70;0.70;;;6.20;47.10;;;;;;4974706;28;20605;-79
2021/03/18 06:42:55;;;;;;;2.35;0.80;;;6.40;47.50;;;;;;4974505;28;20430;-79
2021/03/18 06:45:21;;;;;;;0.77;0.75;;;6.50;46.80;;;;;;4957314;28;20072;-79
2021/03/18 06:47:52;;;;;;;1.13;0.77;;;6.70;45.70;;;;;;4974556;28;20035;-79
2021/03/18 06:50:30;;;;;;;0.85;0.85;;;6.80;46.10;;;;;;4974457;28;20042;-78
2021/03/18 06:52:55;;;;;;;0.63;0.50;;;6.90;46.20;;;;;;4974734;28;20023;-78
2021/03/18 06:55:33;;;;;;;1.55;0.60;;;7.00;46.00;;;;;;4974808;28;20077;-78
2021/03/18 06:58:21;;;;;;;1.52;0.60;;;7.20;45.00;;;;;;4974215;28;20027;-79
2021/03/18 07:00:59;;;;;;;0.60;0.60;;;7.30;43.80;;;;;;4979577;28;20058;-78
2021/03/18 07:03:32;;;;;;;0.60;0.60;;;7.40;43.20;;;;;;4973959;28;20026;-78
2021/03/18 07:05:59;;;;;;;1.65;0.30;;;7.50;42.80;;;;;;4993412;28;20053;-78
2021/03/18 07:08:30;;;;;;;0.68;0.50;;;7.60;43.50;;;;;;4967216;28;20035;-78
2021/03/18 07:10:58;;;;;;;3.10;0.60;;;7.80;42.90;;;;;;4978001;28;20058;-78
2021/03/18 07:13:25;;;;;;;1.02;0.60;;;7.80;42.90;;;;;;4980799;28;20437;-78
2021/03/18 07:15:53;;;;;;;0.70;0.60;;;7.90;43.10;;;;;;4973417;28;20431;-78
2021/03/18 07:18:19;;;;;;;0.77;0.77;;;8.00;42.80;;;;;;4972020;28;20034;-79
2021/03/18 07:21:00;;;;;;;0.70;0.70;;;8.00;42.60;;;;;;4973275;28;20097;-78
2021/03/18 07:23:33;;;;;;;0.80;0.80;;;8.10;43.00;;;;;;4974138;28;20023;-78
2021/03/18 07:26:00;;;;;;;0.60;0.60;;;8.10;41.60;;;;;;4973852;28;20050;-78
2021/03/18 07:28:26;;;;;;;0.40;0.40;;;8.20;40.90;;;;;;4974006;28;20035;-74
2021/03/18 07:30:52;;;;;;;0.50;0.50;;;8.30;42.50;;;;;;4973348;28;20077;-75
2021/03/18 07:33:19;;;;;;;0.60;0.60;;;8.40;41.70;;;;;;4973174;28;20669;-74
2021/03/18 07:35:49;;;;;;;0.60;0.60;;;8.50;40.80;;;;;;4973295;28;20542;-73
2021/03/18 07:38:16;;;;;;;1.08;0.65;;;8.60;40.90;;;;;;4955766;28;20027;-72
2021/03/18 07:40:42;;;;;;;0.60;0.60;;;8.60;41.20;;;;;;4955706;28;20034;-72
2021/03/18 07:43:08;;;;;;;8.32;2.88;;;8.70;41.60;;;;;;4964036;28;20035;-75
2021/03/18 07:45:34;;;;;;;4.47;3.85;;;8.70;46.50;;;;;;4974284;28;20109;-74
2021/03/18 07:48:02;;;;;;;6.25;4.70;;;8.80;51.70;;;;;;4973863;28;20054;-74
2021/03/18 07:50:32;;;;;;;6.65;5.22;;;8.60;54.00;;;;;;4961490;28;20543;-75
2021/03/18 07:52:58;;;;;;;15.98;5.80;;;8.50;55.30;;;;;;4957510;28;20035;-75
2021/03/18 07:55:25;;;;;;;22.90;6.20;;;8.50;55.10;;;;;;4978623;28;20097;-75
2021/03/18 07:57:51;;;;;;;9.35;6.15;;;8.30;56.00;;;;;;4975764;28;20560;-75
2021/03/18 08:00:25;;;;;;;20.08;6.13;;;8.30;56.80;;;;;;4977745;28;20070;-75
2021/03/18 08:02:52;;;;;;;8.90;5.53;;;8.30;57.30;;;;;;4957071;28;20739;-75
2021/03/18 08:05:44;;;;;;;10.02;4.65;;;8.30;56.00;;;;;;4974540;28;20076;-73
2021/03/18 08:08:33;;;;;;;8.48;5.70;;;8.20;54.20;;;;;;4964169;28;20050;-75
2021/03/18 08:11:17;;;;;;;15.35;5.47;;;8.20;53.70;;;;;;4955910;28;20118;-75
2021/03/18 08:13:44;;;;;;;10.55;6.07;;;8.30;53.50;;;;;;4955151;28;20033;-75
2021/03/18 08:16:31;;;;;;;10.90;5.15;;;8.30;53.40;;;;;;4976987;28;20065;-75
2021/03/18 08:18:57;;;;;;;14.50;5.70;;;8.40;53.40;;;;;;4974594;28;20035;-75
2021/03/18 08:21:39;;;;;;;8.45;4.88;;;8.40;53.90;;;;;;4974671;28;20054;-75
2021/03/18 08:24:08;;;;;;;9.40;5.30;;;8.40;53.10;;;;;;4978710;28;20083;-75
2021/03/18 08:26:38;;;;;;;8.77;4.97;;;8.50;53.40;;;;;;4954300;28;20034;-75
2021/03/18 08:29:08;;;;;;;9.50;4.82;;;8.50;53.50;;;;;;4974402;28;20058;-74
2021/03/18 08:31:34;;;;;;;15.90;5.25;;;8.50;53.80;;;;;;4970860;28;20022;-74
2021/03/18 08:34:01;;;;;;;12.57;4.80;;;8.60;53.80;;;;;;4971835;28;20049;-74
2021/03/18 08:36:32;;;;;;;10.85;5.55;;;8.60;54.80;;;;;;4970378;28;20501;-74
2021/03/18 08:39:04;;;;;;;9.73;6.03;;;8.70;55.40;;;;;;4959751;28;20130;-74
2021/03/18 08:41:36;;;;;;;7.63;5.03;;;8.80;56.20;;;;;;4970701;28;20618;-74
2021/03/18 08:44:11;;;;;;;7.85;4.45;;;8.70;55.90;;;;;;4976880;28;20034;-74
2021/03/18 08:46:55;;;;;;;13.55;6.32;;;8.70;56.80;;;;;;4976259;28;20475;-73
2021/03/18 08:49:22;;;;;;;10.95;6.10;;;8.70;56.90;;;;;;4981067;28;20109;-74
2021/03/18 08:51:49;;;;;;;12.88;6.22;;;8.70;58.20;;;;;;4954363;28;20037;-74
2021/03/18 08:54:37;;;;;;;10.85;5.88;;;8.70;58.50;;;;;;4958244;28;20369;-74
2021/03/18 08:57:25;;;;;;;4.47;4.07;;;8.60;58.50;;;;;;4957191;28;20526;-74
2021/03/18 08:59:54;;;;;;;10.73;5.70;;;8.70;60.70;;;;;;4971752;28;20097;-73
2021/03/18 09:02:30;;;;;;;6.88;5.65;;;8.90;60.00;;;;;;4957509;28;20043;-74
2021/03/18 09:04:56;;;;;;;9.30;6.30;;;8.70;59.80;;;;;;4956389;28;20019;-74
2021/03/18 09:07:29;;;;;;;11.05;6.53;;;8.70;60.50;;;;;;4965426;28;20034;-73
2021/03/18 09:10:18;;;;;;;11.10;5.82;;;8.60;61.00;;;;;;4960886;28;20051;-73
2021/03/18 09:12:45;;;;;;;17.70;7.55;;;8.50;60.90;;;;;;4965548;28;20050;-74
2021/03/18 09:15:18;;;;;;;11.98;5.97;;;8.60;61.10;;;;;;4966021;28;20034;-74
2021/03/18 09:17:46;;;;;;;15.48;5.75;;;8.60;60.90;;;;;;4963541;28;20031;-74
2021/03/18 09:20:15;;;;;;;13.93;6.18;;;8.70;61.50;;;;;;4952994;28;20070;-73
2021/03/18 09:22:41;;;;;;;11.32;5.82;;;8.70;61.80;;;;;;4962052;28;20085;-74
2021/03/18 09:25:08;;;;;;;10.40;5.93;;;8.70;62.00;;;;;;4968699;28;20034;-74
2021/03/18 09:27:37;;;;;;;8.40;5.45;;;8.70;62.30;;;;;;4966283;28;20105;-73
2021/03/18 09:30:21;;;;;;;8.10;5.53;;;8.70;61.90;;;;;;4960747;28;20031;-74
2021/03/18 09:32:48;;;;;;;9.20;5.47;;;8.70;61.70;;;;;;4967671;28;20031;-73
2021/03/18 09:35:14;;;;;;;5.93;5.30;;;8.80;61.50;;;;;;4959229;28;20034;-73
2021/03/18 09:37:40;;;;;;;6.20;5.60;;;8.80;61.50;;;;;;4967093;28;20027;-73
2021/03/18 09:40:09;;;;;;;6.07;4.93;;;8.80;61.80;;;;;;4966062;28;20484;-73
2021/03/18 09:42:35;;;;;;;12.63;5.32;;;8.90;63.10;;;;;;4963258;28;20019;-74
2021/03/18 09:45:02;;;;;;;9.13;5.38;;;8.90;63.40;;;;;;4965973;28;20058;-73
2021/03/18 09:47:28;;;;;;;6.82;4.00;;;8.90;64.00;;;;;;4966629;28;20026;-74
2021/03/18 09:49:54;;;;;;;3.35;2.55;;;8.90;62.20;;;;;;4963197;28;20039;-73
2021/03/18 09:52:25;;;;;;;2.47;2.28;;;8.90;57.50;;;;;;4962075;28;20105;-74
2021/03/18 09:54:51;;;;;;;7.88;2.65;;;8.90;57.40;;;;;;4959143;28;20688;-74
2021/03/18 09:57:17;;;;;;;5.20;2.70;;;8.90;57.00;;;;;;4963333;28;20031;-74
2021/03/18 09:59:49;;;;;;;2.88;2.63;;;8.90;57.40;;;;;;4963499;28;20031;-73
2021/03/18 10:02:16;;;;;;;;;;;8.80;56.50;;;;;;4960235;28;20058;-73
2021/03/18 10:04:43;;;;;;;2.85;2.40;;;8.80;55.90;;;;;;4965131;28;19914;-73
2021/03/18 10:07:10;;;;;;;2.67;2.45;;;8.80;56.50;;;;;;4965667;28;20030;-73
2021/03/18 10:09:39;;;;;;;2.78;2.55;;;8.90;56.90;;;;;;4964778;28;20030;-73
2021/03/18 10:12:10;;;;;;;2.25;1.80;;;9.00;57.30;;;;;;4965525;28;20489;-73
2021/03/18 10:14:37;;;;;;;2.30;2.13;;;9.10;56.80;;;;;;4961958;28;20042;-73
2021/03/18 10:17:15;;;;;;;1.60;1.50;;;9.10;56.70;;;;;;4968633;28;20027;-73
2021/03/18 10:20:00;;;;;;;1.85;1.75;;;9.20;56.20;;;;;;4963019;28;20034;-74
2021/03/18 10:22:32;;;;;;;1.48;1.38;;;9.20;56.50;;;;;;4959893;28;20031;-74
2021/03/18 10:25:09;;;;;;;1.73;1.63;;;9.20;56.50;;;;;;4959611;28;20707;-74
2021/03/18 10:27:41;;;;;;;1.08;1.08;;;9.20;56.40;;;;;;4964304;28;20050;-73
2021/03/18 10:30:11;;;;;;;2.25;1.17;;;9.30;56.20;;;;;;4966297;28;20098;-73
2021/03/18 10:32:38;;;;;;;2.25;1.45;;;9.30;57.10;;;;;;4966565;28;20023;-74
2021/03/18 10:35:05;;;;;;;5.63;1.70;;;9.30;58.00;;;;;;4963650;28;20401;-73
2021/03/18 10:37:40;;;;;;;1.90;1.50;;;9.20;58.50;;;;;;4967991;28;20058;-74
2021/03/18 10:40:08;;;;;;;2.22;1.70;;;9.20;58.70;;;;;;4962756;28;20023;-74
2021/03/18 10:42:34;;;;;;;2.05;1.38;;;9.30;60.70;;;;;;4962417;28;20101;-73
2021/03/18 10:45:31;;;;;;;1.98;1.73;;;9.30;58.90;;;;;;4956282;28;20474;-74
2021/03/18 10:48:00;;;;;;;3.38;2.28;;;9.40;59.50;;;;;;4954054;28;20039;-74
2021/03/18 10:50:29;;;;;;;2.22;2.03;;;9.40;59.50;;;;;;4964080;28;20450;-74
2021/03/18 10:53:06;;;;;;;1.60;1.50;;;9.40;59.50;;;;;;4967306;28;20404;-73
2021/03/18 10:55:47;;;;;;;2.00;1.80;;;9.50;59.10;;;;;;4955189;28;20077;-74
2021/03/18 10:58:21;;;;;;;1.98;1.88;;;9.40;57.90;;;;;;4961971;28;20099;-73
2021/03/18 11:00:48;;;;;;;2.08;1.98;;;9.40;58.40;;;;;;4963622;28;20118;-73
2021/03/18 11:03:16;;;;;;;3.58;1.60;;;9.50;58.40;;;;;;4973188;28;20039;-73
2021/03/18 11:05:45;;;;;;;2.88;1.52;;;9.60;58.60;;;;;;4970358;28;20102;-73
2021/03/18 11:08:12;;;;;;;1.77;1.60;;;9.70;58.30;;;;;;4981403;28;20026;-74
2021/03/18 11:10:41;;;;;;;1.45;1.35;;;9.70;57.50;;;;;;4960073;28;20164;-73
2021/03/18 11:13:12;;;;;;;1.70;1.60;;;9.90;58.60;;;;;;4969747;28;20022;-73
2021/03/18 11:15:52;;;;;;;1.58;1.50;;;10.10;58.20;;;;;;4960273;28;20030;-74
2021/03/18 11:18:25;;;;;;;2.15;1.88;;;10.30;58.10;;;;;;4972649;28;20029;-74
2021/03/18 11:20:50;;;;;;;1.40;1.30;;;10.10;55.30;;;;;;4973682;28;20023;-74
2021/03/18 11:23:26;;;;;;;1.35;1.27;;;10.30;56.00;;;;;;4969093;28;20795;-73
2021/03/18 11:25:56;;;;;;;1.58;1.42;;;10.30;54.90;;;;;;4970203;28;20027;-73
2021/03/18 11:28:22;;;;;;;1.38;1.35;;;10.40;56.20;;;;;;4956003;28;20031;-73
2021/03/18 11:30:48;;;;;;;1.30;1.20;;;10.50;56.10;;;;;;4984393;28;20037;-74
2021/03/18 11:33:16;;;;;;;1.60;1.50;;;10.70;56.40;;;;;;4977631;28;20039;-74
2021/03/18 11:35:44;;;;;;;2.75;1.67;;;10.80;55.00;;;;;;4973664;28;20019;-74
2021/03/18 11:38:10;;;;;;;1.70;1.60;;;10.70;54.60;;;;;;4974192;28;20023;-75
2021/03/18 11:40:36;;;;;;;1.70;1.60;;;10.70;55.20;;;;;;4971283;28;20030;-73
2021/03/18 11:43:03;;;;;;;2.35;1.80;;;10.80;55.60;;;;;;4949529;28;20023;-74
2021/03/18 11:45:29;;;;;;;1.58;1.48;;;10.90;55.40;;;;;;4971324;28;20038;-73
2021/03/18 11:47:56;;;;;;;2.88;1.75;;;10.70;52.60;;;;;;4950303;28;20046;-73
2021/03/18 11:50:21;;;;;;;1.73;1.63;;;10.70;54.70;;;;;;4954761;28;20023;-73
2021/03/18 11:52:49;;;;;;;1.75;1.65;;;10.80;57.10;;;;;;4980335;28;20091;-74
2021/03/18 11:55:15;;;;;;;2.15;1.95;;;11.10;56.20;;;;;;4973459;28;20039;-73
2021/03/18 11:57:41;;;;;;;3.20;1.60;;;11.10;56.30;;;;;;4967411;28;20500;-73
2021/03/18 12:00:09;;;;;;;1.88;1.77;;;11.40;56.20;;;;;;4954222;28;20034;-74
2021/03/18 12:02:35;;;;;;;2.95;1.55;;;11.50;55.00;;;;;;4967396;28;20089;-73
2021/03/18 12:05:01;;;;;;;1.65;1.55;;;11.50;54.00;;;;;;4974007;28;20026;-73
2021/03/18 12:07:26;;;;;;;1.38;1.27;;;11.60;53.40;;;;;;4975447;28;20026;-74
2021/03/18 12:09:52;;;;;;;1.67;1.58;;;11.50;54.40;;;;;;4977780;28;21549;-74
2021/03/18 12:12:18;;;;;;;2.97;2.78;;;11.60;55.40;;;;;;4986134;28;20030;-73
2021/03/18 12:14:43;;;;;;;1.83;1.70;;;11.80;55.90;;;;;;4984518;28;20035;-73
2021/03/18 12:17:09;;;;;;;1.90;1.80;;;11.70;52.80;;;;;;4991006;28;20108;-73
2021/03/18 12:19:35;;;;;;;2.20;2.10;;;11.80;55.10;;;;;;4971915;28;20026;-74
2021/03/18 12:22:01;;;;;;;1.88;1.77;;;11.80;54.10;;;;;;4986003;28;20027;-74
2021/03/18 12:24:27;;;;;;;2.40;2.20;;;11.70;54.00;;;;;;4976700;28;20027;-73
2021/03/18 12:26:53;;;;;;;2.00;1.90;;;11.80;53.70;;;;;;4986301;28;20404;-73
2021/03/18 12:29:19;;;;;;;1.65;1.40;;;12.10;54.50;;;;;;4985709;28;20026;-74
2021/03/18 12:31:45;;;;;;;1.42;1.25;;;12.40;54.80;;;;;;4976835;28;20480;-73
2021/03/18 12:34:11;;;;;;;1.60;1.50;;;12.40;52.10;;;;;;4974134;28;20042;-73
2021/03/18 12:36:40;;;;;;;2.05;1.45;;;12.50;53.70;;;;;;4967676;28;20027;-74
2021/03/18 12:39:07;;;;;;;1.30;1.30;;;12.50;53.60;;;;;;4979057;28;20027;-74
2021/03/18 12:41:33;;;;;;;2.10;2.00;;;12.50;54.00;;;;;;4977942;28;20093;-74
2021/03/18 12:43:59;;;;;;;2.38;2.17;;;12.30;54.40;;;;;;4963781;28;20031;-74
2021/03/18 12:46:26;;;;;;;2.53;2.33;;;12.20;55.60;;;;;;4975013;28;20030;-73
2021/03/18 12:48:52;;;;;;;2.00;1.90;;;12.20;55.90;;;;;;4979968;28;20090;-73
2021/03/18 12:51:18;;;;;;;2.00;1.90;;;12.30;55.60;;;;;;4979330;28;20038;-74
2021/03/18 12:53:43;;;;;;;2.28;2.05;;;12.50;56.20;;;;;;4983011;28;20077;-74
2021/03/18 12:56:09;;;;;;;3.78;1.92;;;12.50;55.60;;;;;;4979708;28;20062;-74
2021/03/18 12:58:35;;;;;;;1.70;1.60;;;12.60;56.90;;;;;;4980730;28;20022;-73
2021/03/18 13:01:01;;;;;;;1.73;1.60;;;12.80;56.10;;;;;;4979967;28;20031;-73
2021/03/18 13:03:27;;;;;;;6.93;1.60;;;12.90;54.00;;;;;;4970687;28;20030;-73
2021/03/18 13:05:53;;;;;;;1.50;1.40;;;12.90;52.20;;;;;;4962837;28;20391;-73